KSBM/SBM METAR and TAF weather

Enter ICAO airport designator
Station Type Date Time Source
KSBM METAR 2020/07/14 22:53 UTC NOAA

KSBM 142253Z AUTO 17010G20KT 10SM CLR 26/17 A2994 RMK AO2 SLP136 T02610167


Station Type Date Time Source
KSBM Decoded METAR 2020/07/14 22:53 UTC NOAA

SHEBOYGAN CO MEMORIAL AIRPORT , WI, United States (KSBM) 43-47N 87-51W 232M
Jul 14, 2020 - 06:53 PM EDT / 2020.07.14 2253 UTC
Wind: from the S (170 degrees) at 12 MPH (10 KT) gusting to 23 MPH (20 KT):0
Visibility: 10 mile(s):0
Sky conditions: clear
Temperature: 79.0 F (26.1 C)
Dew Point: 62.1 F (16.7 C)
Relative Humidity: 56%
Pressure (altimeter): 29.94 in. Hg (1013 hPa)
ob: KSBM 142253Z AUTO 17010G20KT 10SM CLR 26/17 A2994 RMK AO2 SLP136 T02610167
cycle: 23

Station Type Date Time Source
KSBM TAF 2020/07/14 18:27 UTC NOAA

TAF KSBM 141727Z 1418/1518 18012KT P6SM SCT050 BKN250
FM142200 17013KT P6SM BKN250
FM150000 17011KT P6SM BKN250
FM150600 21007KT P6SM VCTS BKN070CB
FM151200 28006KT P6SM OVC050
FM151500 33006KT P6SM BKN024

Example: see airport list